Time;durP1;ratioP1;P1;durP2;ratioP2;P2;SDS_P1;SDS_P2;PMS_P1;PMS_P2;Temp;Humidity;BMP_temperature;BMP_pressure;BME280_temperature;BME280_humidity;BME280_pressure;Samples;Min_cycle;Max_cycle;Signal;HPM_P1;HPM_P2
2024/01/31 00:01:18;;;;;;;39.53;21.75;;;-2.00;99.90;;;;;;4939579;29;20028;-64
2024/01/31 00:03:44;;;;;;;47.03;21.63;;;-2.00;99.90;;;;;;4939512;29;20031;-64
2024/01/31 00:06:11;;;;;;;43.78;22.27;;;-2.00;99.90;;;;;;4956736;29;20034;-64
2024/01/31 00:08:37;;;;;;;44.15;22.23;;;-2.00;99.90;;;;;;4939374;29;20035;-64
2024/01/31 00:11:03;;;;;;;45.92;21.25;;;-2.00;99.90;;;;;;4956548;29;20077;-64
2024/01/31 00:13:29;;;;;;;40.63;21.90;;;-2.00;99.90;;;;;;4939518;29;20407;-64
2024/01/31 00:15:54;;;;;;;49.83;21.98;;;-2.00;99.90;;;;;;4939310;29;20068;-64
2024/01/31 00:18:20;;;;;;;39.42;20.35;;;-2.10;99.90;;;;;;4956575;29;20027;-64
2024/01/31 00:20:46;;;;;;;45.95;20.73;;;-2.10;99.90;;;;;;4939218;29;20035;-64
2024/01/31 00:23:12;;;;;;;39.20;20.83;;;-2.10;99.90;;;;;;4956174;29;20203;-64
2024/01/31 00:25:38;;;;;;;45.85;21.33;;;-2.10;99.90;;;;;;4956597;29;20485;-64
2024/01/31 00:28:03;;;;;;;43.80;21.00;;;-2.10;99.90;;;;;;4956555;29;20451;-64
2024/01/31 00:30:29;;;;;;;44.50;22.35;;;-2.20;99.90;;;;;;4956797;29;20023;-64
2024/01/31 00:32:55;;;;;;;42.80;21.20;;;-2.00;99.90;;;;;;4956301;29;20131;-64
2024/01/31 00:35:20;;;;;;;42.53;21.67;;;-2.20;99.90;;;;;;4939165;29;20042;-64
2024/01/31 00:37:46;;;;;;;48.63;22.67;;;-0.50;99.90;;;;;;4956209;29;20038;-64
2024/01/31 00:40:12;;;;;;;40.15;21.35;;;-2.30;99.90;;;;;;4938658;29;20526;-64
2024/01/31 00:42:38;;;;;;;46.17;21.67;;;-2.20;99.90;;;;;;4955847;29;20387;-64
2024/01/31 00:45:06;;;;;;;44.97;21.40;;;-1.90;99.90;;;;;;4956114;29;20106;-64
2024/01/31 00:47:31;;;;;;;42.53;22.65;;;-2.30;99.90;;;;;;4938820;29;20023;-64
2024/01/31 00:49:57;;;;;;;50.58;22.13;;;-2.30;99.90;;;;;;4957194;29;20024;-66
2024/01/31 00:52:23;;;;;;;48.30;21.88;;;-2.30;99.90;;;;;;4957614;29;20027;-65
2024/01/31 00:54:49;;;;;;;48.78;22.88;;;-2.30;99.90;;;;;;4956901;29;20043;-64
2024/01/31 00:57:15;;;;;;;45.90;22.15;;;-2.30;99.90;;;;;;4956241;29;20030;-64
2024/01/31 00:59:42;;;;;;;43.50;22.05;;;-2.30;99.90;;;;;;4956708;29;20027;-64
2024/01/31 01:02:08;;;;;;;48.75;23.00;;;-2.30;99.90;;;;;;4938649;29;20034;-64
2024/01/31 01:04:34;;;;;;;46.33;22.30;;;-2.30;99.90;;;;;;4938688;29;20058;-64
2024/01/31 01:07:00;;;;;;;52.00;23.05;;;-2.20;99.90;;;;;;4938895;29;20035;-64
2024/01/31 01:09:26;;;;;;;48.38;22.15;;;-2.40;99.90;;;;;;4955978;29;20352;-64
2024/01/31 01:11:51;;;;;;;48.63;23.17;;;-2.40;99.90;;;;;;4955990;29;20023;-64
2024/01/31 01:14:17;;;;;;;51.38;22.13;;;-2.40;99.90;;;;;;4938484;29;20034;-64
2024/01/31 01:16:43;;;;;;;43.28;21.20;;;-2.50;99.90;;;;;;4955392;29;20118;-64
2024/01/31 01:19:09;;;;;;;46.05;22.65;;;-2.40;99.90;;;;;;4938454;29;20042;-64
2024/01/31 01:21:35;;;;;;;48.35;22.88;;;-2.40;99.90;;;;;;4955669;29;20039;-64
2024/01/31 01:24:01;;;;;;;51.28;24.23;;;-2.40;99.90;;;;;;4955506;29;20539;-64
2024/01/31 01:26:26;;;;;;;45.67;22.35;;;-2.40;99.90;;;;;;4938675;29;20122;-65
2024/01/31 01:28:52;;;;;;;50.63;21.85;;;-2.30;99.90;;;;;;4955573;29;20023;-65
2024/01/31 01:31:18;;;;;;;44.60;22.25;;;-1.30;99.90;;;;;;4955803;29;20387;-64
2024/01/31 01:33:44;;;;;;;51.35;22.63;;;-2.50;99.90;;;;;;4938051;29;20122;-64
2024/01/31 01:36:09;;;;;;;50.33;23.08;;;-2.50;99.90;;;;;;4955561;29;20031;-65
2024/01/31 01:38:38;;;;;;;47.75;22.55;;;-2.50;99.90;;;;;;4955529;29;20031;-64
2024/01/31 01:41:04;;;;;;;44.80;22.90;;;-2.50;99.90;;;;;;4955686;29;20077;-64
2024/01/31 01:43:30;;;;;;;48.08;22.75;;;-1.90;99.90;;;;;;4955167;29;20039;-64
2024/01/31 01:46:09;;;;;;;54.80;25.35;;;-2.60;99.90;;;;;;4955569;29;20046;-64
2024/01/31 01:48:35;;;;;;;54.33;23.40;;;-2.50;99.90;;;;;;4939086;29;20074;-64
2024/01/31 01:51:01;;;;;;;50.03;24.15;;;-2.50;99.90;;;;;;4939325;29;20490;-64
2024/01/31 01:53:27;;;;;;;50.92;24.38;;;-2.50;99.90;;;;;;4959203;29;20035;-64
2024/01/31 01:55:53;;;;;;;52.55;24.60;;;-2.50;99.90;;;;;;4941898;29;20122;-64
2024/01/31 01:58:19;;;;;;;52.75;23.42;;;-1.40;99.90;;;;;;4958927;29;20027;-64
2024/01/31 02:00:46;;;;;;;53.50;24.65;;;-1.50;99.90;;;;;;4959004;29;20024;-64
2024/01/31 02:03:13;;;;;;;57.10;26.27;;;-2.40;99.90;;;;;;4958742;29;20383;-64
2024/01/31 02:05:39;;;;;;;60.28;25.00;;;-2.40;99.90;;;;;;4958897;29;20113;-64
2024/01/31 02:08:06;;;;;;;53.30;26.67;;;-2.40;99.90;;;;;;4941720;29;20451;-64
2024/01/31 02:10:32;;;;;;;59.45;25.80;;;-2.30;99.90;;;;;;4941398;29;20083;-64
2024/01/31 02:12:57;;;;;;;58.42;27.45;;;-2.30;99.90;;;;;;4959051;29;20031;-64
2024/01/31 02:15:23;;;;;;;60.25;27.15;;;-2.30;99.90;;;;;;4941668;29;20035;-64
2024/01/31 02:17:48;;;;;;;55.35;26.67;;;-2.30;99.90;;;;;;4941489;29;20456;-64
2024/01/31 02:20:15;;;;;;;58.85;27.23;;;-2.20;99.90;;;;;;4958722;29;20031;-64
2024/01/31 02:22:45;;;;;;;60.28;26.02;;;-2.20;99.90;;;;;;4958669;29;20027;-64
2024/01/31 02:25:13;;;;;;;51.20;25.23;;;-2.20;99.90;;;;;;4958135;29;20051;-64
2024/01/31 02:27:39;;;;;;;55.30;25.48;;;-2.00;99.90;;;;;;4958807;29;20374;-64
2024/01/31 02:30:09;;;;;;;54.90;25.67;;;-2.30;99.90;;;;;;4958677;29;20106;-64
2024/01/31 02:32:36;;;;;;;55.00;25.92;;;-2.20;99.90;;;;;;4941173;29;20082;-64
2024/01/31 02:35:02;;;;;;;54.90;26.60;;;-2.30;99.90;;;;;;4958221;29;20372;-64
2024/01/31 02:37:27;;;;;;;57.92;25.65;;;-2.20;99.90;;;;;;4941210;29;20091;-64
2024/01/31 02:39:53;;;;;;;49.50;24.75;;;-2.20;99.90;;;;;;4958299;29;20038;-64
2024/01/31 02:42:19;;;;;;;55.05;25.65;;;-2.30;99.90;;;;;;4941055;29;20031;-64
2024/01/31 02:44:45;;;;;;;48.00;23.95;;;-2.30;99.90;;;;;;4958262;29;20473;-64
2024/01/31 02:47:10;;;;;;;52.75;24.60;;;-2.20;99.90;;;;;;4957870;29;20031;-64
2024/01/31 02:49:36;;;;;;;51.67;25.45;;;-0.80;99.90;;;;;;4958234;29;20027;-64
2024/01/31 02:52:02;;;;;;;54.28;25.65;;;-2.20;99.90;;;;;;4941047;29;20122;-64
2024/01/31 02:54:27;;;;;;;49.88;25.15;;;-2.20;99.90;;;;;;4958147;29;20106;-64
2024/01/31 02:56:53;;;;;;;51.92;25.55;;;-2.20;99.90;;;;;;4958026;29;20035;-64
2024/01/31 02:59:22;;;;;;;53.08;24.05;;;-2.20;99.90;;;;;;4940763;29;20074;-64
2024/01/31 03:01:49;;;;;;;50.30;23.33;;;-2.10;99.90;;;;;;4940662;29;20034;-64
2024/01/31 03:04:15;;;;;;;52.55;25.33;;;-0.60;99.90;;;;;;4957725;28;20102;-64
2024/01/31 03:06:40;;;;;;;53.90;26.08;;;-2.10;99.90;;;;;;4957801;29;20122;-64
2024/01/31 03:09:06;;;;;;;53.53;26.40;;;-2.10;99.90;;;;;;4957732;29;20452;-64
2024/01/31 03:11:32;;;;;;;52.83;25.65;;;-1.90;99.90;;;;;;4941286;29;20042;-64
2024/01/31 03:13:58;;;;;;;55.78;24.98;;;-2.00;99.90;;;;;;4957750;29;20078;-64
2024/01/31 03:16:24;;;;;;;56.15;25.20;;;-1.70;99.90;;;;;;4957741;29;20379;-64
2024/01/31 03:18:50;;;;;;;51.95;23.80;;;-2.00;99.90;;;;;;4957646;29;20031;-64
2024/01/31 03:21:15;;;;;;;51.47;24.48;;;-1.80;99.90;;;;;;4940329;29;20113;-64
2024/01/31 03:23:41;;;;;;;49.17;24.10;;;-1.90;99.90;;;;;;4940156;29;20023;-64
2024/01/31 03:26:06;;;;;;;49.35;24.40;;;-1.90;99.90;;;;;;4957628;29;20072;-64
2024/01/31 03:28:32;;;;;;;50.95;24.65;;;-1.90;99.90;;;;;;4940536;29;20094;-64
2024/01/31 03:30:58;;;;;;;53.80;24.52;;;-1.80;99.90;;;;;;4959062;29;20027;-65
2024/01/31 03:33:24;;;;;;;52.17;24.40;;;-1.90;99.90;;;;;;4960521;29;20038;-65
2024/01/31 03:35:49;;;;;;;52.65;24.55;;;-1.80;99.90;;;;;;4961528;29;20031;-66
2024/01/31 03:38:15;;;;;;;48.53;23.88;;;-1.90;99.90;;;;;;4960947;29;20431;-64
2024/01/31 03:40:40;;;;;;;47.33;24.10;;;-1.80;99.90;;;;;;4957985;29;20031;-65
2024/01/31 03:43:06;;;;;;;51.72;24.60;;;-1.80;99.90;;;;;;4940591;29;20387;-65
2024/01/31 03:45:32;;;;;;;46.53;24.00;;;-1.80;99.90;;;;;;4940506;29;20487;-64
2024/01/31 03:47:58;;;;;;;43.05;23.77;;;-1.80;99.90;;;;;;4957865;29;20030;-64
2024/01/31 03:50:23;;;;;;;52.63;24.65;;;-1.80;99.90;;;;;;4957350;29;20030;-64
2024/01/31 03:52:49;;;;;;;43.35;22.52;;;-1.80;99.90;;;;;;4940095;29;20522;-64
2024/01/31 03:55:15;;;;;;;50.50;24.30;;;-1.80;99.90;;;;;;4957146;29;20472;-64
2024/01/31 03:57:40;;;;;;;50.60;22.90;;;-0.70;99.90;;;;;;4956749;29;20034;-64
2024/01/31 04:00:08;;;;;;;47.97;23.45;;;-1.80;99.90;;;;;;4940014;29;20356;-64
2024/01/31 04:02:35;;;;;;;45.17;23.08;;;-1.70;99.90;;;;;;4956933;29;20035;-65
2024/01/31 04:05:01;;;;;;;47.28;23.20;;;-1.70;99.90;;;;;;4956833;29;20368;-64
2024/01/31 04:07:30;;;;;;;45.38;22.17;;;-1.70;99.90;;;;;;4939622;29;20494;-64
2024/01/31 04:09:56;;;;;;;48.25;24.25;;;-1.70;99.90;;;;;;4956443;29;20411;-64
2024/01/31 04:12:22;;;;;;;49.13;23.27;;;-1.60;99.90;;;;;;4956508;29;20023;-64
2024/01/31 04:14:47;;;;;;;47.45;22.77;;;-1.70;99.90;;;;;;4938473;29;20118;-64
2024/01/31 04:17:13;;;;;;;45.55;22.50;;;-1.50;99.90;;;;;;4939395;29;20129;-64
2024/01/31 04:19:38;;;;;;;46.60;23.20;;;-1.60;99.90;;;;;;4956547;29;20115;-64
2024/01/31 04:22:04;;;;;;;43.40;22.75;;;-1.70;99.90;;;;;;4956559;29;20062;-64
2024/01/31 04:24:30;;;;;;;45.55;21.95;;;-1.60;99.90;;;;;;4956515;29;20048;-64
2024/01/31 04:26:55;;;;;;;43.90;23.40;;;-1.60;99.90;;;;;;4956395;29;20045;-64
2024/01/31 04:29:21;;;;;;;42.42;22.10;;;-1.60;99.90;;;;;;4957454;29;20031;-64
2024/01/31 04:31:51;;;;;;;40.45;20.77;;;-1.60;99.90;;;;;;4939992;29;20049;-65
2024/01/31 04:34:17;;;;;;;37.53;21.23;;;-1.50;99.90;;;;;;4939793;29;20423;-64
2024/01/31 04:36:43;;;;;;;43.08;20.92;;;-1.60;99.90;;;;;;4956910;29;20140;-64
2024/01/31 04:39:08;;;;;;;42.90;20.45;;;-1.60;99.90;;;;;;4956358;29;20379;-64
2024/01/31 04:41:35;;;;;;;42.88;21.17;;;-1.70;99.90;;;;;;4956408;29;20028;-64
2024/01/31 04:44:01;;;;;;;47.05;21.92;;;-1.60;99.90;;;;;;4956638;29;20123;-64
2024/01/31 04:46:26;;;;;;;41.15;21.13;;;-1.70;99.90;;;;;;4956306;29;20471;-64
2024/01/31 04:48:52;;;;;;;41.42;22.08;;;-1.70;99.90;;;;;;4956083;29;20168;-64
2024/01/31 04:51:18;;;;;;;44.63;22.23;;;-1.50;99.90;;;;;;4956521;29;20459;-65
2024/01/31 04:53:43;;;;;;;46.55;19.95;;;-1.60;99.90;;;;;;4938790;29;20030;-64
2024/01/31 04:56:09;;;;;;;41.83;20.45;;;-1.60;99.90;;;;;;4955687;29;20486;-64
2024/01/31 04:58:35;;;;;;;44.25;20.73;;;-1.60;99.90;;;;;;4938790;29;20023;-64
2024/01/31 05:01:01;;;;;;;43.58;20.58;;;-0.80;99.90;;;;;;4955939;29;20027;-65
2024/01/31 05:03:27;;;;;;;42.20;20.63;;;-1.60;99.90;;;;;;4938594;29;20034;-64
2024/01/31 05:05:53;;;;;;;46.22;21.92;;;-1.60;99.90;;;;;;4938556;29;20039;-64
2024/01/31 05:08:19;;;;;;;45.00;21.55;;;-1.70;99.90;;;;;;4955815;29;20034;-64
2024/01/31 05:10:45;;;;;;;47.80;20.60;;;-1.30;99.90;;;;;;4955776;29;20027;-64
2024/01/31 05:13:12;;;;;;;41.40;22.38;;;-1.70;99.90;;;;;;4938426;29;20031;-64
2024/01/31 05:15:38;;;;;;;47.42;21.67;;;-1.50;99.90;;;;;;4938408;29;20037;-68
2024/01/31 05:18:04;;;;;;;45.92;22.05;;;-0.50;99.90;;;;;;4938442;29;20472;-64
2024/01/31 05:20:30;;;;;;;46.97;22.25;;;-1.50;99.90;;;;;;4938498;29;20042;-64
2024/01/31 05:22:59;;;;;;;40.63;21.50;;;-1.30;99.90;;;;;;4955692;29;20023;-64
2024/01/31 05:25:25;;;;;;;43.60;21.90;;;-1.40;99.90;;;;;;4938044;28;20054;-64
2024/01/31 05:27:51;;;;;;;40.97;22.25;;;-1.40;99.90;;;;;;4959614;29;20097;-64
2024/01/31 05:30:16;;;;;;;43.22;21.55;;;-1.20;99.90;;;;;;4959917;29;20031;-64
2024/01/31 05:32:42;;;;;;;43.97;21.38;;;-1.40;99.90;;;;;;4959641;29;20181;-64
2024/01/31 05:35:08;;;;;;;43.47;21.00;;;-1.40;99.90;;;;;;4959706;29;20027;-65
2024/01/31 05:37:34;;;;;;;50.13;23.27;;;-1.40;99.90;;;;;;4959956;29;20034;-64
2024/01/31 05:39:59;;;;;;;43.70;21.67;;;-1.40;99.90;;;;;;4960111;29;20023;-64
2024/01/31 05:42:25;;;;;;;42.17;20.63;;;-1.30;99.90;;;;;;4941824;29;20031;-64
2024/01/31 05:44:53;;;;;;;53.13;25.25;;;-1.40;99.90;;;;;;4942195;29;20027;-64
2024/01/31 05:47:22;;;;;;;44.57;20.27;;;-1.40;99.90;;;;;;4942305;29;20035;-63
2024/01/31 05:49:48;;;;;;;41.05;21.27;;;-1.40;99.90;;;;;;4942181;29;20058;-64
2024/01/31 05:52:14;;;;;;;43.10;21.60;;;-1.40;99.90;;;;;;4959137;29;20067;-64
2024/01/31 05:54:39;;;;;;;48.20;23.42;;;-1.40;99.90;;;;;;4959705;29;20031;-64
2024/01/31 05:57:06;;;;;;;45.55;21.05;;;-1.40;99.90;;;;;;4941825;29;20031;-64
2024/01/31 05:59:31;;;;;;;48.60;23.23;;;-1.40;99.90;;;;;;4959420;29;20023;-64
2024/01/31 06:01:58;;;;;;;41.17;21.25;;;-1.40;99.90;;;;;;4941527;29;20069;-63
2024/01/31 06:04:24;;;;;;;46.83;21.38;;;-1.30;99.90;;;;;;4958870;29;20034;-64
2024/01/31 06:06:49;;;;;;;50.35;22.85;;;-1.30;99.90;;;;;;4958834;29;20087;-64
2024/01/31 06:09:15;;;;;;;41.75;21.92;;;-1.10;99.90;;;;;;4941829;29;20023;-64
2024/01/31 06:11:41;;;;;;;41.13;21.08;;;-0.70;99.90;;;;;;4959101;29;20038;-63
2024/01/31 06:14:06;;;;;;;47.85;21.83;;;-1.30;99.90;;;;;;4942174;29;20176;-64
2024/01/31 06:16:33;;;;;;;44.33;21.67;;;-1.30;99.90;;;;;;4959264;29;20181;-64
2024/01/31 06:19:01;;;;;;;46.50;22.45;;;-1.30;99.90;;;;;;4941497;29;20452;-64
2024/01/31 06:21:26;;;;;;;44.10;23.20;;;-1.30;99.90;;;;;;4958335;29;20412;-64
2024/01/31 06:23:52;;;;;;;47.65;23.13;;;-1.20;99.90;;;;;;4958046;29;20067;-64
2024/01/31 06:26:18;;;;;;;39.92;20.52;;;-1.40;99.90;;;;;;4958713;29;20074;-64
2024/01/31 06:28:43;;;;;;;39.63;21.05;;;-1.20;99.90;;;;;;4958310;29;20456;-64
2024/01/31 06:31:27;;;;;;;44.25;22.35;;;-1.20;99.90;;;;;;4958433;29;20032;-64
2024/01/31 06:33:52;;;;;;;44.17;21.55;;;-1.40;99.90;;;;;;4941237;29;20078;-64
2024/01/31 06:36:19;;;;;;;41.42;21.98;;;-1.20;99.90;;;;;;4958394;29;20515;-64
2024/01/31 06:38:46;;;;;;;41.50;21.30;;;-1.40;99.90;;;;;;4957238;28;20354;-64
2024/01/31 06:41:16;;;;;;;42.70;21.00;;;-1.30;99.90;;;;;;4941389;29;20036;-64
2024/01/31 06:43:42;;;;;;;42.90;21.30;;;-1.30;99.90;;;;;;4941026;29;20475;-65
2024/01/31 06:46:07;;;;;;;42.35;21.98;;;-1.30;99.90;;;;;;4958160;29;20058;-64
2024/01/31 06:48:33;;;;;;;42.80;21.67;;;-1.30;99.90;;;;;;4941164;29;20042;-64
2024/01/31 06:50:59;;;;;;;42.90;20.83;;;-1.40;99.90;;;;;;4958073;29;20031;-64
2024/01/31 06:53:27;;;;;;;41.22;21.10;;;-1.30;99.90;;;;;;4940903;29;20043;-64
2024/01/31 06:55:53;;;;;;;45.53;22.27;;;-1.20;99.90;;;;;;4957904;29;20114;-64
2024/01/31 06:58:19;;;;;;;42.00;21.27;;;-0.60;99.90;;;;;;4958124;29;20321;-64
2024/01/31 07:00:45;;;;;;;47.00;22.15;;;-1.20;99.90;;;;;;4957886;28;20031;-64
2024/01/31 07:03:11;;;;;;;43.83;21.73;;;-1.20;99.90;;;;;;4959991;28;20054;-64
2024/01/31 07:05:37;;;;;;;48.05;23.60;;;-1.10;99.90;;;;;;4957808;29;20118;-70
2024/01/31 07:08:03;;;;;;;43.53;21.50;;;-1.10;99.90;;;;;;4957571;29;20138;-70
2024/01/31 07:10:28;;;;;;;53.17;23.88;;;-1.00;99.90;;;;;;4957823;29;20447;-64
2024/01/31 07:12:54;;;;;;;42.88;22.13;;;-0.80;99.90;;;;;;4957747;29;20027;-64
2024/01/31 07:15:20;;;;;;;42.47;20.92;;;-0.90;99.90;;;;;;4940508;29;20023;-64
2024/01/31 07:17:46;;;;;;;41.92;21.63;;;-0.80;99.90;;;;;;4957718;29;20038;-64
2024/01/31 07:20:12;;;;;;;45.60;22.52;;;-0.60;99.90;;;;;;4940445;29;20028;-64
2024/01/31 07:22:38;;;;;;;41.58;22.30;;;-0.60;99.90;;;;;;4940468;29;20031;-64
2024/01/31 07:25:04;;;;;;;47.40;24.33;;;-0.50;99.90;;;;;;4957291;29;20085;-65
2024/01/31 07:27:29;;;;;;;47.70;22.70;;;-0.40;99.90;;;;;;4940665;29;20031;-64
2024/01/31 07:29:55;;;;;;;48.10;23.58;;;-0.30;99.90;;;;;;4957303;29;20027;-64
2024/01/31 07:32:21;;;;;;;45.92;22.63;;;-0.20;99.90;;;;;;4957462;29;20030;-65
2024/01/31 07:34:47;;;;;;;42.25;22.15;;;-0.10;99.90;;;;;;4957054;29;20039;-65
2024/01/31 07:37:13;;;;;;;47.75;24.60;;;0.00;99.90;;;;;;4957333;29;20460;-64
2024/01/31 07:39:38;;;;;;;46.10;23.42;;;0.10;99.90;;;;;;4957334;29;20024;-65
2024/01/31 07:42:04;;;;;;;46.75;23.50;;;0.10;99.90;;;;;;4957563;29;20467;-64
2024/01/31 07:44:30;;;;;;;42.42;22.13;;;0.60;99.90;;;;;;4957697;29;20027;-65
2024/01/31 07:46:55;;;;;;;41.78;22.17;;;0.40;99.90;;;;;;4939949;29;20035;-64
2024/01/31 07:49:21;;;;;;;40.92;21.52;;;0.60;99.90;;;;;;4939746;29;20067;-64
2024/01/31 07:51:46;;;;;;;40.88;22.77;;;0.80;99.90;;;;;;4939906;29;20419;-64
2024/01/31 07:54:12;;;;;;;41.95;22.45;;;1.20;99.90;;;;;;4957006;29;20054;-64
2024/01/31 07:56:38;;;;;;;42.67;21.80;;;1.50;99.90;;;;;;4939689;29;20031;-64
2024/01/31 07:59:04;;;;;;;40.05;21.92;;;1.70;99.90;;;;;;4944586;28;20038;-64
2024/01/31 08:01:29;;;;;;;38.25;20.73;;;1.70;99.90;;;;;;4963651;28;20054;-64
2024/01/31 08:03:55;;;;;;;39.38;22.05;;;1.70;99.90;;;;;;4946695;29;20027;-64
2024/01/31 08:06:21;;;;;;;37.25;20.55;;;1.80;99.90;;;;;;4963376;28;20078;-64
2024/01/31 08:08:46;;;;;;;36.28;18.70;;;1.80;99.90;;;;;;4975985;28;20493;-64
2024/01/31 08:11:17;;;;;;;39.80;19.05;;;1.90;99.90;;;;;;4976154;28;20027;-64
2024/01/31 08:13:52;;;;;;;34.50;20.48;;;1.90;99.90;;;;;;4976046;28;20026;-64
2024/01/31 08:16:17;;;;;;;37.55;19.52;;;1.90;99.90;;;;;;4976243;28;20019;-64
2024/01/31 08:18:43;;;;;;;43.92;19.38;;;1.90;99.90;;;;;;4975840;28;20069;-64
2024/01/31 08:21:09;;;;;;;38.08;18.75;;;1.90;99.90;;;;;;4975780;28;20081;-64
2024/01/31 08:23:34;;;;;;;36.13;19.85;;;1.80;99.90;;;;;;4975912;28;20451;-64
2024/01/31 08:26:00;;;;;;;36.83;20.30;;;1.90;99.90;;;;;;4975218;28;20047;-64
2024/01/31 08:28:25;;;;;;;34.58;18.70;;;2.00;99.90;;;;;;4975961;28;20450;-64
2024/01/31 08:30:51;;;;;;;34.92;20.08;;;2.10;99.90;;;;;;4958035;28;20113;-64
2024/01/31 08:33:17;;;;;;;35.78;18.70;;;2.50;99.90;;;;;;4975668;28;20033;-64
2024/01/31 08:35:44;;;;;;;38.80;19.10;;;2.90;99.90;;;;;;4975256;28;20113;-64
2024/01/31 08:38:09;;;;;;;33.97;18.58;;;3.10;99.90;;;;;;4975307;28;20094;-64
2024/01/31 08:40:35;;;;;;;33.47;19.33;;;3.10;99.90;;;;;;4975206;28;20487;-65
2024/01/31 08:43:01;;;;;;;33.13;18.85;;;3.30;99.90;;;;;;4975136;28;20058;-65
2024/01/31 08:45:26;;;;;;;32.65;17.80;;;3.40;99.90;;;;;;4958021;28;20034;-64
2024/01/31 08:47:52;;;;;;;31.50;17.58;;;3.40;99.90;;;;;;4975553;28;20074;-64
2024/01/31 08:50:18;;;;;;;33.85;18.17;;;3.40;99.90;;;;;;4975282;28;20542;-64
2024/01/31 08:52:43;;;;;;;30.65;16.63;;;3.30;99.90;;;;;;4975291;28;20023;-65
2024/01/31 08:55:09;;;;;;;30.02;17.48;;;3.70;99.90;;;;;;4975253;28;20037;-64
2024/01/31 08:57:35;;;;;;;29.85;17.08;;;4.00;99.90;;;;;;4975495;28;20054;-64
2024/01/31 09:00:04;;;;;;;30.00;17.75;;;4.40;99.90;;;;;;4975171;28;20023;-64
2024/01/31 09:02:29;;;;;;;26.85;15.40;;;4.40;99.90;;;;;;4974572;28;20443;-65
2024/01/31 09:04:55;;;;;;;27.08;15.60;;;4.80;99.90;;;;;;4974902;28;20035;-65
2024/01/31 09:07:21;;;;;;;24.80;15.98;;;5.90;99.90;;;;;;4975086;28;20093;-65
2024/01/31 09:09:46;;;;;;;25.67;16.30;;;6.90;99.90;;;;;;4958080;28;20459;-65
2024/01/31 09:12:12;;;;;;;23.77;15.45;;;7.70;99.90;;;;;;4975343;28;20023;-65
2024/01/31 09:14:38;;;;;;;23.77;15.10;;;8.30;99.90;;;;;;4975521;28;20030;-65
2024/01/31 09:17:04;;;;;;;21.40;14.40;;;8.70;98.90;;;;;;4957755;28;20042;-65
2024/01/31 09:19:30;;;;;;;22.48;15.25;;;9.40;97.30;;;;;;4957547;28;20521;-65
2024/01/31 09:21:56;;;;;;;23.25;14.57;;;10.00;95.30;;;;;;4975000;28;20023;-66
2024/01/31 09:24:22;;;;;;;20.70;14.75;;;10.70;93.50;;;;;;4974947;28;20058;-66
2024/01/31 09:26:47;;;;;;;21.42;14.65;;;11.00;91.50;;;;;;4975084;28;20384;-65
2024/01/31 09:29:13;;;;;;;19.30;13.82;;;11.10;90.20;;;;;;4974900;28;20101;-65
2024/01/31 09:31:39;;;;;;;22.95;15.30;;;11.10;89.40;;;;;;4974981;28;20035;-65
2024/01/31 09:34:04;;;;;;;22.38;14.40;;;11.40;87.80;;;;;;4974838;28;20110;-65
2024/01/31 09:36:30;;;;;;;18.10;14.48;;;11.60;86.20;;;;;;4974709;28;20027;-66
2024/01/31 09:38:56;;;;;;;20.63;14.73;;;11.90;84.00;;;;;;4974416;28;20023;-65
2024/01/31 09:41:21;;;;;;;22.35;16.77;;;11.90;82.90;;;;;;4975216;28;20110;-66
2024/01/31 09:43:47;;;;;;;18.30;14.40;;;11.90;82.40;;;;;;4974772;28;20119;-66
2024/01/31 09:46:14;;;;;;;16.38;13.50;;;11.90;82.20;;;;;;4974599;28;20114;-66
2024/01/31 09:48:40;;;;;;;21.25;14.77;;;12.00;82.30;;;;;;4974662;28;20030;-65
2024/01/31 09:51:07;;;;;;;26.25;18.35;;;12.30;80.30;;;;;;4974246;28;20026;-65
2024/01/31 09:53:36;;;;;;;20.73;14.45;;;12.80;78.90;;;;;;4957271;28;20026;-66
2024/01/31 09:56:02;;;;;;;;;;;13.00;76.80;;;;;;4974743;28;20483;-66
2024/01/31 09:58:28;;;;;;;19.27;14.32;;;13.30;76.40;;;;;;4974269;28;19914;-66
2024/01/31 10:00:55;;;;;;;15.27;12.40;;;13.70;75.40;;;;;;4957378;28;20101;-66
2024/01/31 10:03:20;;;;;;;16.25;12.77;;;13.90;73.30;;;;;;4974616;28;20035;-66
2024/01/31 10:05:46;;;;;;;20.27;14.65;;;13.90;71.90;;;;;;4974464;28;20038;-66
2024/01/31 10:08:12;;;;;;;28.73;21.58;;;14.20;73.10;;;;;;4974273;28;20039;-66
2024/01/31 10:10:37;;;;;;;24.48;19.48;;;14.50;71.70;;;;;;4974211;28;20360;-66
2024/01/31 10:13:06;;;;;;;20.25;14.82;;;14.60;70.20;;;;;;4977405;28;20031;-66
2024/01/31 10:15:32;;;;;;;17.88;13.80;;;14.60;68.50;;;;;;4978399;28;20109;-66
2024/01/31 10:17:58;;;;;;;17.75;12.25;;;14.70;69.30;;;;;;4961041;28;20118;-66
2024/01/31 10:20:24;;;;;;;15.07;11.70;;;14.50;68.40;;;;;;4977886;28;20050;-66
2024/01/31 10:22:50;;;;;;;15.43;11.25;;;13.90;67.90;;;;;;4978216;28;20029;-66
2024/01/31 10:25:18;;;;;;;15.82;11.52;;;13.70;69.90;;;;;;4977837;28;20042;-66
2024/01/31 10:27:47;;;;;;;14.40;11.32;;;14.00;68.60;;;;;;4978075;28;20085;-66
2024/01/31 10:30:14;;;;;;;19.40;11.27;;;14.40;67.60;;;;;;4960664;28;20077;-66
2024/01/31 10:32:41;;;;;;;15.88;11.45;;;14.30;67.10;;;;;;4977798;28;20023;-66
2024/01/31 10:35:07;;;;;;;14.05;10.85;;;14.10;67.10;;;;;;4960287;28;20027;-66
2024/01/31 10:37:34;;;;;;;15.32;10.30;;;14.30;67.20;;;;;;4977416;28;20027;-66
2024/01/31 10:40:00;;;;;;;16.05;10.40;;;14.30;67.00;;;;;;4960730;28;20030;-66
2024/01/31 10:42:28;;;;;;;16.30;10.20;;;14.30;67.00;;;;;;4977599;28;20061;-66
2024/01/31 10:44:55;;;;;;;23.05;9.82;;;14.10;67.70;;;;;;4977590;28;20030;-66
2024/01/31 10:47:21;;;;;;;20.42;10.23;;;13.60;69.00;;;;;;4977185;28;20471;-66
2024/01/31 10:49:46;;;;;;;19.30;9.75;;;13.20;70.60;;;;;;4977238;28;20045;-66
2024/01/31 10:52:16;;;;;;;13.10;8.55;;;13.10;71.90;;;;;;4959799;28;20027;-66
2024/01/31 10:54:49;;;;;;;16.00;9.93;;;13.00;73.30;;;;;;4977057;28;20031;-65
2024/01/31 10:57:16;;;;;;;17.67;10.07;;;12.60;73.10;;;;;;4977464;28;20034;-65
2024/01/31 10:59:42;;;;;;;11.77;8.35;;;12.10;74.50;;;;;;4959658;28;20122;-66
2024/01/31 11:02:14;;;;;;;15.73;9.02;;;11.80;76.80;;;;;;4976767;28;20102;-65
2024/01/31 11:04:41;;;;;;;17.65;9.25;;;11.50;77.90;;;;;;4977139;28;20027;-65
2024/01/31 11:07:15;;;;;;;19.55;9.13;;;11.20;77.00;;;;;;4976751;28;20035;-65
2024/01/31 11:09:41;;;;;;;11.10;7.63;;;11.20;81.20;;;;;;4976834;28;20110;-65
2024/01/31 11:12:12;;;;;;;11.02;7.65;;;11.10;78.00;;;;;;4976734;28;20498;-65
2024/01/31 11:14:41;;;;;;;11.07;7.15;;;10.80;81.70;;;;;;4976842;28;20050;-66
2024/01/31 11:17:12;;;;;;;14.73;7.38;;;10.80;80.50;;;;;;4960372;28;20031;-65
2024/01/31 11:19:58;;;;;;;18.30;7.78;;;10.60;79.40;;;;;;4976994;28;20447;-65
2024/01/31 11:22:24;;;;;;;14.50;6.30;;;10.70;78.70;;;;;;4976986;28;20027;-65
2024/01/31 11:24:53;;;;;;;9.52;6.32;;;10.90;77.40;;;;;;4958534;28;20069;-65
2024/01/31 11:27:19;;;;;;;14.60;6.43;;;10.90;77.10;;;;;;4976816;28;20066;-65
2024/01/31 11:29:48;;;;;;;22.58;8.52;;;10.80;77.70;;;;;;4976454;28;20094;-65
2024/01/31 11:32:15;;;;;;;14.57;6.80;;;10.50;78.70;;;;;;4977020;28;20065;-64
2024/01/31 11:34:42;;;;;;;22.45;7.18;;;10.30;79.80;;;;;;4976675;28;20030;-65
2024/01/31 11:37:09;;;;;;;23.15;7.78;;;10.20;80.50;;;;;;4959353;28;20039;-65
2024/01/31 11:39:34;;;;;;;17.17;7.72;;;10.50;80.50;;;;;;4959252;28;20051;-65
2024/01/31 11:42:00;;;;;;;29.63;8.63;;;11.00;79.60;;;;;;4959203;28;20073;-65
2024/01/31 11:44:28;;;;;;;15.75;7.93;;;11.70;78.00;;;;;;4959662;28;20059;-65
2024/01/31 11:46:54;;;;;;;19.00;7.80;;;12.30;75.40;;;;;;4976421;28;20034;-65
2024/01/31 11:49:20;;;;;;;15.52;8.10;;;12.30;74.90;;;;;;4959341;28;20031;-65
2024/01/31 11:51:45;;;;;;;14.13;7.97;;;11.90;75.20;;;;;;4959298;28;20478;-65
2024/01/31 11:54:11;;;;;;;15.23;7.88;;;11.90;76.20;;;;;;4959045;28;20040;-65
2024/01/31 11:56:37;;;;;;;20.85;7.97;;;12.00;76.40;;;;;;4958866;28;20031;-65
2024/01/31 11:59:04;;;;;;;28.77;8.68;;;12.20;76.30;;;;;;4976208;28;20031;-65
2024/01/31 12:01:31;;;;;;;18.90;8.45;;;12.20;75.50;;;;;;4976310;28;20029;-65
2024/01/31 12:03:57;;;;;;;24.95;9.60;;;12.00;75.90;;;;;;4976102;28;20023;-65
2024/01/31 12:06:22;;;;;;;21.65;8.98;;;11.80;76.20;;;;;;4975837;28;20034;-65
2024/01/31 12:08:49;;;;;;;15.15;7.78;;;11.50;77.20;;;;;;4976101;28;20086;-65
2024/01/31 12:11:16;;;;;;;18.02;8.07;;;11.50;78.00;;;;;;4976321;28;20037;-65
2024/01/31 12:13:41;;;;;;;20.63;9.13;;;11.40;78.10;;;;;;4976269;28;20037;-65
2024/01/31 12:16:08;;;;;;;29.60;9.18;;;10.90;79.00;;;;;;4958689;28;20027;-65
2024/01/31 12:18:34;;;;;;;18.60;8.63;;;10.70;80.50;;;;;;4976301;28;20031;-65
2024/01/31 12:21:04;;;;;;;20.50;8.32;;;10.40;81.60;;;;;;4975846;28;20360;-65
2024/01/31 12:23:30;;;;;;;18.52;8.23;;;10.00;82.80;;;;;;4975778;28;20029;-65
2024/01/31 12:25:56;;;;;;;19.95;8.63;;;9.80;83.80;;;;;;4955024;29;20047;-65